METAR Data
IDs: Format: Raw Decoded Include TAF

Data at: 0219 UTC 24 Sep 2018

KVNY 240151Z 11005KT 10SM CLR 24/14 A2981 RMK AO2 SLP085 T02390144
KVNY 240051Z 11006KT 10SM CLR 28/14 A2979 RMK AO2 SLP080 T02780139
KVNY 232351Z 15009KT 10SM CLR 29/12 A2979 RMK AO2 SLP080 T02940122 10322 20244 56021
KVNY 232251Z 13009KT 10SM CLR 32/12 A2980 RMK AO2 SLP082 T03170122
KVNY 232151Z 17005KT 10SM CLR 32/13 A2982 RMK AO2 SLP089 T03170128
KVNY 232051Z 00000KT 10SM CLR 31/13 A2986 RMK AO2 SLP101 T03060128 58021
KVNY 231951Z VRB04KT 10SM CLR 29/15 A2989 RMK AO2 SLP112 T02890150
KVNY 231851Z 13006KT 10SM CLR 26/16 A2992 RMK AO2 SLP122 T02560156
KVNY 231751Z 14007KT 10SM CLR 25/16 A2992 RMK AO2 SLP123 T02500156 10256 20189 51005
KVNY 231651Z VRB04KT 10SM CLR 24/14 A2992 RMK AO2 SLP123 T02440144
KVNY 231551Z VRB03KT 10SM CLR 22/15 A2991 RMK AO2 SLP119 T02220150
KVNY 231451Z 00000KT 10SM CLR 20/14 A2991 RMK AO2 SLP118 T02000144 53010
KVNY 231351Z 00000KT 10SM FEW120 19/14 A2989 RMK AO2 SLP113 T01890139
KVNY 231251Z 00000KT 10SM CLR 19/14 A2988 RMK AO2 SLP109 T01890139
KVNY 231151Z AUTO 00000KT 10SM CLR 19/14 A2987 RMK AO2 SLP105 T01940139 10217 20189 58001
KVNY 231051Z AUTO 01004KT 10SM FEW120 20/14 A2988 RMK AO2 SLP105 T02000144
KVNY 230951Z AUTO 00000KT 10SM CLR 20/15 A2988 RMK AO2 SLP106 T02000150
KVNY 230851Z AUTO 00000KT 10SM SCT120 20/14 A2988 RMK AO2 SLP106 T02000144 58001
KVNY 230751Z AUTO 00000KT 10SM FEW120 21/15 A2989 RMK AO2 SLP110 T02060150 403780178
KVNY 230651Z AUTO 11003KT 10SM FEW120 21/15 A2989 RMK AO2 SLP111 T02060150
KVNY 230551Z AUTO 09005KT 10SM CLR 22/16 A2988 RMK AO2 SLP109 T02170156 10356 20217 51012
KVNY 230451Z 13005KT 10SM FEW120 23/15 A2987 RMK AO2 SLP107 T02330150
KVNY 230351Z 26003KT 10SM CLR 27/04 A2986 RMK AO2 SLP103 T02670039
KVNY 230251Z 23005KT 10SM CLR 28/07 A2985 RMK AO2 SLP098 T02830072 53005
KVNY 230151Z 23003KT 10SM CLR 30/11 A2983 RMK AO2 SLP093 T03000106
KVNY 230051Z 30010KT 10SM CLR 33/09 A2982 RMK AO2 SLP089 T03330094
KVNY 222351Z 31005KT 10SM CLR 36/10 A2983 RMK AO2 SLP092 T03560100 10378 20294 56018
KVNY 222251Z 16009KT 10SM CLR 37/12 A2984 RMK AO2 SLP093 T03670117
KVNY 222151Z 14004KT 10SM CLR 36/13 A2986 RMK AO2 SLP100 T03610128
KVNY 222051Z 22004KT 10SM CLR 36/09 A2988 RMK AO2 SLP109 T03610094 58025
KVNY 221951Z 00000KT 10SM CLR 34/06 A2992 RMK AO2 SLP120 T03440056
KVNY 221851Z 00000KT 10SM CLR 32/09 A2994 RMK AO2 SLP129 T03170094
KVNY 221751Z 11003KT 10SM CLR 29/12 A2996 RMK AO2 SLP135 T02940117 10294 20178 58003
KVNY 221651Z 00000KT 10SM CLR 26/13 A2997 RMK AO2 SLP138 T02560133
KVNY 221551Z 00000KT 10SM CLR 22/14 A2997 RMK AO2 SLP139 T02170144
KVNY 221451Z 00000KT 10SM CLR 19/15 A2997 RMK AO2 SLP139 T01940150 53005